Darstellungsparameter: Aktuell verwendete Einstellungen:
Skalierung der Graphiken ... ?
xyx+y,   Skalierungsfaktor:      Skalierung: Modus: x, Faktor: 1
Darstellungszeitraum ... ?
Vom - - bis: - -   Zeitraum: 09.05.2021 - 10.05.2021
Min/Max/Avg-Anzeige ... ?
Zeige MMA aktuell
Zeige MMA Monat
Zeige MMA alles
Zeige --A aktuell
Zeige --A Monat
Zeige --A alles
Keine MMA-Anzeige
MMA:
Keine MMA-Graphiken
MMA-Basis: 09.05.2021 - 10.05.2021
Quicknavigation für Darstellung... ?
Tage:      1T, 2T, 3T, 5T -1T -2T -3T -5T +1T +2T +3T +5T
Wochen: 1W, 2W, 3W -1W -2W -3W +1W +2W +3W
Monate: 1M, 3M, 6M -1M -3M -6M +1M +3M +6M
Jahre:    1J, 3J, 5J, 10J -1J -3J -5J -10J +1J +3J +5J +10J
Nutze für die Darstellung ... ?
Originaldaten oder Mittelwerte auf ...
Stundenbasis Tagesbasis Wochenbasis
Monatsbasis Jahresbasis      Datenbasis: Original-Daten
Darstellen als:
Statistik (Auto) Statistik J:M      Darstellung:

Der gewünschte Datumsbereich war nicht gültig/verfügbar und wurde korrigiert....
Das angegebene Enddatum (15.02.2029 23:59:59) liegt in der Zukunft.
Das angegebene Startdatum (16.08.2028 00:00:00) liegt in der Zukunft.


Zur Graphik,    zurück zur Übersicht aller Sensoren.
 
Tabellarische Datenbersicht: ?
 
Sensor: Nr:Datum:Temp:Feuchte:Taupunkt:
Aussen-T/F 1 09-05-2021 02:00:00 9.6 C 88 % 7.71 C
2 09-05-2021 02:05:00 9.6 C 88 % 7.71 C
3 09-05-2021 02:10:00 9.5 C 88 % 7.61 C
4 09-05-2021 02:15:00 9.4 C 89 % 7.68 C
5 09-05-2021 02:20:00 9.3 C 89 % 7.58 C
6 09-05-2021 02:25:00 9.3 C 89 % 7.58 C
7 09-05-2021 02:30:00 9.2 C 89 % 7.48 C
8 09-05-2021 02:35:00 9.2 C 89 % 7.48 C
9 09-05-2021 02:40:00 9.2 C 89 % 7.48 C
10 09-05-2021 02:45:00 9.1 C 90 % 7.55 C
11 09-05-2021 02:50:00 9.1 C 90 % 7.55 C
12 09-05-2021 02:55:00 9 C 90 % 7.45 C
13 09-05-2021 03:00:00 8.9 C 90 % 7.35 C
14 09-05-2021 03:05:00 8.9 C 90 % 7.35 C
15 09-05-2021 03:10:00 8.8 C 90 % 7.25 C
16 09-05-2021 03:15:00 8.8 C 90 % 7.25 C
17 09-05-2021 03:20:00 8.7 C 91 % 7.32 C
18 09-05-2021 03:25:00 8.7 C 91 % 7.32 C
19 09-05-2021 03:30:00 8.7 C 91 % 7.32 C
20 09-05-2021 03:35:00 8.7 C 91 % 7.32 C
21 09-05-2021 03:40:00 8.7 C 91 % 7.32 C
22 09-05-2021 03:45:00 8.6 C 91 % 7.22 C
23 09-05-2021 03:50:00 8.6 C 91 % 7.22 C
24 09-05-2021 03:55:00 8.5 C 91 % 7.12 C
25 09-05-2021 04:00:00 8.4 C 91 % 7.02 C
Sensor: Nr:Datum:Temp:Feuchte:Taupunkt:
Aussen-T/F 26 09-05-2021 04:05:00 8.4 C 91 % 7.02 C
27 09-05-2021 04:10:00 8.3 C 91 % 6.92 C
28 09-05-2021 04:15:00 8.3 C 91 % 6.92 C
29 09-05-2021 04:20:00 8.2 C 91 % 6.82 C
30 09-05-2021 04:25:00 8.1 C 91 % 6.72 C
31 09-05-2021 04:30:00 8.1 C 91 % 6.72 C
32 09-05-2021 04:35:00 8.1 C 92 % 6.88 C
33 09-05-2021 04:40:00 8 C 92 % 6.78 C
34 09-05-2021 04:45:00 8 C 92 % 6.78 C
35 09-05-2021 04:50:00 8 C 92 % 6.78 C
36 09-05-2021 04:55:00 8 C 92 % 6.78 C
37 09-05-2021 05:00:00 7.9 C 92 % 6.68 C
38 09-05-2021 05:05:00 7.9 C 92 % 6.68 C
39 09-05-2021 05:10:00 7.9 C 93 % 6.84 C
40 09-05-2021 05:15:00 8 C 93 % 6.94 C
41 09-05-2021 05:20:00 8 C 93 % 6.94 C
42 09-05-2021 05:25:00 7.9 C 93 % 6.84 C
43 09-05-2021 05:30:00 7.9 C 92 % 6.68 C
44 09-05-2021 05:35:00 7.8 C 92 % 6.58 C
45 09-05-2021 05:40:00 7.7 C 92 % 6.48 C
46 09-05-2021 05:45:00 7.6 C 92 % 6.39 C
47 09-05-2021 05:50:00 7.5 C 93 % 6.44 C
48 09-05-2021 05:55:00 7.5 C 93 % 6.44 C
49 09-05-2021 06:00:00 7.4 C 93 % 6.34 C
50 09-05-2021 06:05:00 7.4 C 93 % 6.34 C
Sensor: Nr:Datum:Temp:Feuchte:Taupunkt:
Aussen-T/F 51 09-05-2021 06:10:00 7.4 C 93 % 6.34 C
52 09-05-2021 06:15:00 7.4 C 93 % 6.34 C
53 09-05-2021 06:20:00 7.4 C 93 % 6.34 C
54 09-05-2021 06:25:00 7.4 C 93 % 6.34 C
55 09-05-2021 06:30:00 7.5 C 94 % 6.6 C
56 09-05-2021 06:35:00 7.6 C 94 % 6.7 C
57 09-05-2021 06:40:00 7.6 C 94 % 6.7 C
58 09-05-2021 06:45:00 7.7 C 94 % 6.8 C
59 09-05-2021 06:50:00 7.7 C 94 % 6.8 C
60 09-05-2021 06:55:00 7.8 C 94 % 6.9 C
61 09-05-2021 07:00:00 7.9 C 94 % 7 C
62 09-05-2021 07:05:00 8.1 C 95 % 7.35 C
63 09-05-2021 07:10:00 8.2 C 94 % 7.29 C
64 09-05-2021 07:15:00 8.3 C 95 % 7.55 C
65 09-05-2021 07:20:00 8.4 C 95 % 7.65 C
66 09-05-2021 07:25:00 8.5 C 94 % 7.59 C
67 09-05-2021 07:30:00 8.6 C 95 % 7.85 C
68 09-05-2021 07:35:00 8.7 C 94 % 7.79 C
69 09-05-2021 07:40:00 8.8 C 94 % 7.89 C
70 09-05-2021 07:45:00 8.8 C 94 % 7.89 C
71 09-05-2021 07:50:00 8.9 C 95 % 8.14 C
72 09-05-2021 07:55:00 9.1 C 95 % 8.34 C
73 09-05-2021 08:00:00 9.2 C 95 % 8.44 C
74 09-05-2021 08:05:00 9.3 C 95 % 8.54 C
75 09-05-2021 08:10:00 9.4 C 95 % 8.64 C
Sensor: Nr:Datum:Temp:Feuchte:Taupunkt:
Aussen-T/F 76 09-05-2021 08:15:00 9.6 C 95 % 8.84 C
77 09-05-2021 08:20:00 9.7 C 95 % 8.94 C
78 09-05-2021 08:25:00 9.8 C 94 % 8.88 C
79 09-05-2021 08:30:00 9.9 C 94 % 8.98 C
80 09-05-2021 08:35:00 10.1 C 95 % 9.34 C
81 09-05-2021 08:40:00 10.2 C 94 % 9.28 C
82 09-05-2021 08:45:00 10.3 C 94 % 9.38 C
83 09-05-2021 08:50:00 10.4 C 94 % 9.48 C
84 09-05-2021 08:55:00 10.6 C 94 % 9.68 C
85 09-05-2021 09:00:00 10.7 C 94 % 9.77 C
86 09-05-2021 09:05:00 10.9 C 94 % 9.97 C
87 09-05-2021 09:10:00 11.1 C 94 % 10.17 C
88 09-05-2021 09:15:00 11.2 C 94 % 10.27 C
89 09-05-2021 09:20:00 11.4 C 93 % 10.31 C
90 09-05-2021 09:25:00 11.7 C 93 % 10.61 C
91 09-05-2021 09:30:00 11.9 C 93 % 10.81 C
92 09-05-2021 09:35:00 12.2 C 93 % 11.1 C
93 09-05-2021 09:40:00 12.6 C 92 % 11.34 C
94 09-05-2021 09:45:00 12.9 C 91 % 11.47 C
95 09-05-2021 09:50:00 13.3 C 91 % 11.86 C
96 09-05-2021 09:55:00 13.8 C 90 % 12.19 C
97 09-05-2021 10:00:00 14.3 C 88 % 12.34 C
98 09-05-2021 10:05:00 14.9 C 87 % 12.76 C
99 09-05-2021 10:10:00 15.6 C 85 % 13.09 C
100 09-05-2021 10:15:00 16.3 C 82 % 13.22 C
Sensor: Nr:Datum:Temp:Feuchte:Taupunkt:
Aussen-T/F 101 09-05-2021 10:20:00 17.6 C 74 % 12.91 C
102 09-05-2021 10:25:00 18.5 C 74 % 13.78 C
103 09-05-2021 10:30:00 19.2 C 69 % 13.38 C
104 09-05-2021 10:35:00 19.7 C 68 % 13.63 C
105 09-05-2021 10:40:00 20.1 C 64 % 13.08 C
106 09-05-2021 10:45:00 20.6 C 65 % 13.79 C
107 09-05-2021 10:50:00 20.9 C 63 % 13.6 C
108 09-05-2021 10:55:00 21.3 C 61 % 13.48 C
109 09-05-2021 11:00:00 21.6 C 59 % 13.25 C
110 09-05-2021 11:05:00 21.7 C 58 % 13.08 C
111 09-05-2021 11:10:00 21.8 C 58 % 13.17 C
112 09-05-2021 11:15:00 21.9 C 58 % 13.27 C
113 09-05-2021 11:20:00 22.2 C 57 % 13.28 C
114 09-05-2021 11:25:00 22.4 C 56 % 13.2 C
115 09-05-2021 11:30:00 22.7 C 57 % 13.75 C
116 09-05-2021 11:35:00 22.9 C 55 % 13.38 C
117 09-05-2021 11:40:00 23.1 C 54 % 13.29 C
118 09-05-2021 11:45:00 23.2 C 53 % 13.09 C
119 09-05-2021 11:50:00 23.1 C 54 % 13.29 C
120 09-05-2021 11:55:00 23.2 C 54 % 13.38 C
121 09-05-2021 12:00:00 23.4 C 53 % 13.28 C
122 09-05-2021 12:05:00 23.6 C 51 % 12.88 C
123 09-05-2021 12:10:00 23.8 C 52 % 13.36 C
124 09-05-2021 12:15:00 23.9 C 50 % 12.85 C
125 09-05-2021 12:20:00 24.1 C 51 % 13.34 C
Sensor: Nr:Datum:Temp:Feuchte:Taupunkt:
Aussen-T/F 126 09-05-2021 12:25:00 24.2 C 50 % 13.12 C
127 09-05-2021 12:30:00 24.4 C 49 % 13 C
128 09-05-2021 12:35:00 24.5 C 51 % 13.7 C
129 09-05-2021 12:40:00 24.6 C 51 % 13.79 C
130 09-05-2021 12:45:00 24.6 C 50 % 13.49 C
131 09-05-2021 12:50:00 24.6 C 52 % 14.09 C
132 09-05-2021 12:55:00 24.7 C 50 % 13.58 C
133 09-05-2021 13:00:00 24.8 C 49 % 13.36 C
134 09-05-2021 13:05:00 24.9 C 50 % 13.77 C
135 09-05-2021 13:10:00 25.1 C 47 % 13 C
136 09-05-2021 13:15:00 25.3 C 49 % 13.82 C
137 09-05-2021 13:20:00 25.4 C 48 % 13.6 C
138 09-05-2021 13:25:00 25.6 C 47 % 13.45 C
139 09-05-2021 13:30:00 25.7 C 47 % 13.55 C
140 09-05-2021 13:35:00 25.9 C 47 % 13.73 C
141 09-05-2021 13:40:00 26.1 C 48 % 14.23 C
142 09-05-2021 13:45:00 26.3 C 46 % 13.76 C
143 09-05-2021 13:50:00 26.4 C 43 % 12.82 C
144 09-05-2021 13:55:00 26.6 C 42 % 12.64 C
145 09-05-2021 14:00:00 26.7 C 42 % 12.73 C
146 09-05-2021 14:05:00 26.8 C 41 % 12.45 C
147 09-05-2021 14:10:00 26.8 C 41 % 12.45 C
148 09-05-2021 14:15:00 26.9 C 42 % 12.91 C
149 09-05-2021 14:20:00 27 C 41 % 12.63 C
150 09-05-2021 14:25:00 27.1 C 40 % 12.34 C
Sensor: Nr:Datum:Temp:Feuchte:Taupunkt:
Aussen-T/F 151 09-05-2021 14:30:00 27.2 C 41 % 12.81 C
152 09-05-2021 14:35:00 27.3 C 41 % 12.9 C
153 09-05-2021 14:40:00 27.5 C 40 % 12.7 C
154 09-05-2021 14:45:00 27.7 C 38 % 12.1 C
155 09-05-2021 14:50:00 27.7 C 40 % 12.88 C
156 09-05-2021 14:55:00 27.7 C 41 % 13.25 C
157 09-05-2021 15:00:00 27.8 C 39 % 12.58 C
158 09-05-2021 15:05:00 27.9 C 39 % 12.67 C
159 09-05-2021 15:10:00 27.9 C 39 % 12.67 C
160 09-05-2021 15:15:00 28 C 38 % 12.36 C
161 09-05-2021 15:20:00 28.1 C 38 % 12.45 C
162 09-05-2021 15:25:00 28.3 C 38 % 12.63 C
163 09-05-2021 15:30:00 28.6 C 39 % 13.29 C
164 09-05-2021 15:35:00 28.8 C 37 % 12.66 C
165 09-05-2021 15:40:00 28.9 C 37 % 12.75 C
166 09-05-2021 15:45:00 29.1 C 35 % 12.08 C
167 09-05-2021 15:50:00 29.1 C 35 % 12.08 C
168 09-05-2021 15:55:00 28.9 C 36 % 12.33 C
169 09-05-2021 16:00:00 28.8 C 38 % 13.07 C
170 09-05-2021 16:05:00 28.9 C 39 % 13.56 C
171 09-05-2021 16:10:00 29.2 C 38 % 13.42 C
172 09-05-2021 16:15:00 29.3 C 37 % 13.1 C

Legende:
   Min
   Max


Maximal/Minimal-Werte vom 09.05.2021 - 10.05.2021

Sensor Min Max Avg
Temp
(Aussen-T/F)
7.4 °C
09-05-2021  06:00:00
29.3 °C
09-05-2021  16:15:00
15.89 °C
Feuchte
(Aussen-T/F)
35 %
09-05-2021  15:45:00
95 %
09-05-2021  07:05:00
73.73 %
Taupunkt
(Aussen-T/F)
6.34 C
09-05-2021  06:00:00
14.23 C
09-05-2021  13:40:00
10.09 C

Die Daten stammen von einer Davis Vantage Pro 2 Wetter-Station und werden unter Linux mit der Software wview2wettercgi und aufbereitet. Alle Angaben erfolgen ohne Gewähr für ihre Vollständigkeit oder Richtigkeit.
Kontakt: Rainer Krienke krienke@uni-koblenz.de . Meine Webseiten an der Uni Koblenz oder privat.
Version: $Revision: 0.78 $